Time;durP1;ratioP1;P1;durP2;ratioP2;P2;SDS_P1;SDS_P2;PMS_P1;PMS_P2;Temp;Humidity;BMP_temperature;BMP_pressure;BME280_temperature;BME280_humidity;BME280_pressure;Samples;Min_cycle;Max_cycle;Signal;HPM_P1;HPM_P2
2021/08/19 00:01:21;;;;;;;4.72;4.18;;;;;;;29.75;53.66;100659.22;144994;569;5002;-79
2021/08/19 00:03:47;;;;;;;7.85;4.18;;;;;;;29.80;54.24;100665.25;144994;572;5002;-80
2021/08/19 00:06:14;;;;;;;5.35;4.15;;;;;;;29.82;54.14;100666.03;144994;567;5002;-81
2021/08/19 00:08:41;;;;;;;7.00;4.10;;;;;;;29.84;53.98;100674.84;144994;579;5002;-80
2021/08/19 00:11:09;;;;;;;6.55;4.00;;;;;;;29.81;54.21;100672.31;144994;584;5003;-81
2021/08/19 00:13:36;;;;;;;6.85;4.30;;;;;;;29.83;53.70;100668.63;144994;593;5002;-80
2021/08/19 00:16:03;;;;;;;8.55;4.47;;;;;;;29.87;53.51;100674.69;144994;579;5002;-87
2021/08/19 00:18:30;;;;;;;5.62;4.20;;;;;;;29.89;53.36;100678.16;144994;601;5003;-80
2021/08/19 00:20:57;;;;;;;5.32;4.35;;;;;;;29.81;52.88;100681.25;144994;585;5002;-80
2021/08/19 00:23:23;;;;;;;5.00;4.50;;;;;;;29.74;53.77;100681.59;144994;623;5002;-80
2021/08/19 00:25:50;;;;;;;4.87;4.37;;;;;;;29.70;53.49;100677.31;144994;576;5002;-80
2021/08/19 00:28:17;;;;;;;7.37;4.37;;;;;;;29.59;53.83;100684.09;144994;670;5002;-80
2021/08/19 00:30:43;;;;;;;5.18;3.85;;;;;;;29.62;53.80;100683.94;144994;569;5002;-80
2021/08/19 00:33:11;;;;;;;5.85;4.37;;;;;;;29.63;53.18;100679.47;144994;608;5002;-80
2021/08/19 00:35:37;;;;;;;6.03;4.18;;;;;;;29.47;52.10;100674.00;144994;573;5002;-80
2021/08/19 00:38:04;;;;;;;7.47;4.53;;;;;;;29.47;53.38;100679.38;144994;589;5002;-79
2021/08/19 00:40:32;;;;;;;5.60;4.18;;;;;;;29.49;53.52;100680.13;144994;627;5002;-80
2021/08/19 00:43:06;;;;;;;4.20;3.80;;;;;;;29.50;53.08;100676.53;144994;575;5002;-80
2021/08/19 00:45:34;;;;;;;6.32;3.85;;;;;;;29.46;53.29;100677.63;144994;592;5002;-80
2021/08/19 00:48:01;;;;;;;5.10;4.30;;;;;;;29.46;52.89;100672.28;144994;580;5002;-80
2021/08/19 00:50:28;;;;;;;4.32;3.92;;;;;;;29.48;53.11;100667.72;144994;610;5002;-82
2021/08/19 00:52:54;;;;;;;7.95;4.12;;;;;;;29.47;52.68;100674.87;144994;597;5002;-79
2021/08/19 00:55:21;;;;;;;5.45;3.80;;;;;;;29.46;52.68;100678.50;144994;591;5002;-80
2021/08/19 00:57:48;;;;;;;7.70;4.07;;;;;;;29.48;52.95;100678.44;144993;620;5002;-80
2021/08/19 01:00:15;;;;;;;4.35;3.95;;;;;;;29.49;52.50;100669.44;144994;587;5002;-80
2021/08/19 01:02:50;;;;;;;5.12;4.20;;;;;;;29.52;52.84;100671.97;144994;565;5003;-78
2021/08/19 01:05:30;;;;;;;7.68;4.30;;;;;;;29.49;52.83;100674.78;144994;583;5002;-81
2021/08/19 01:07:59;;;;;;;6.18;4.05;;;;;;;29.44;52.45;100674.16;144994;564;5002;-80
2021/08/19 01:10:27;;;;;;;4.75;4.18;;;;;;;29.42;52.76;100668.03;144994;670;5003;-81
2021/08/19 01:12:54;;;;;;;6.80;4.07;;;;;;;29.42;52.54;100668.03;144994;610;5002;-80
2021/08/19 01:15:20;;;;;;;5.12;4.15;;;;;;;29.42;52.44;100668.03;144994;577;5002;-79
2021/08/19 01:18:00;;;;;;;4.57;4.18;;;;;;;29.43;52.74;100675.09;144994;579;5002;-79
2021/08/19 01:20:32;;;;;;;6.10;3.95;;;;;;;29.45;52.70;100665.22;144994;583;5002;-82
2021/08/19 01:23:02;;;;;;;5.93;4.32;;;;;;;29.48;52.51;100665.06;144994;638;5002;-79
2021/08/19 01:25:31;;;;;;;5.65;4.05;;;;;;;29.51;52.34;100669.38;144994;611;5002;-79
2021/08/19 01:28:00;;;;;;;4.85;4.15;;;;;;;29.53;52.58;100665.69;144994;602;5002;-81
2021/08/19 01:30:34;;;;;;;5.40;4.18;;;;;;;29.60;52.52;100676.94;144994;598;5002;-81
2021/08/19 01:33:08;;;;;;;6.57;4.43;;;;;;;29.68;52.37;100672.06;144994;570;5002;-82
2021/08/19 01:35:41;;;;;;;6.15;4.50;;;;;;;29.81;52.38;100672.31;144994;593;5002;-83
2021/08/19 01:38:12;;;;;;;6.72;4.87;;;;;;;29.92;52.14;100671.78;144994;622;5002;-78
2021/08/19 01:40:44;;;;;;;6.28;4.50;;;;;;;30.01;52.02;100666.81;144994;658;5002;-80
2021/08/19 01:43:18;;;;;;;5.07;4.55;;;;;;;30.11;51.72;100669.84;144994;672;5002;-80
2021/08/19 01:46:09;;;;;;;5.68;4.60;;;;;;;30.19;51.80;100673.00;144994;580;5002;-81
2021/08/19 01:48:49;;;;;;;6.50;4.50;;;;;;;30.28;51.55;100665.44;144994;589;5002;-78
2021/08/19 01:51:24;;;;;;;6.18;4.62;;;;;;;30.34;51.05;100665.09;144994;623;5002;-81
2021/08/19 01:53:51;;;;;;;4.55;4.15;;;;;;;30.38;50.75;100672.03;144994;585;5002;-80
2021/08/19 01:56:23;;;;;;;6.25;5.00;;;;;;;30.39;51.37;100669.28;144994;576;5002;-80
2021/08/19 01:58:57;;;;;;;4.90;4.40;;;;;;;30.40;51.15;100672.84;144994;571;5002;-79
2021/08/19 02:01:26;;;;;;;5.05;4.40;;;;;;;30.36;50.57;100671.22;144994;650;5002;-81
2021/08/19 02:03:53;;;;;;;4.87;4.35;;;;;;;30.28;50.52;100668.09;144994;610;5002;-79
2021/08/19 02:06:20;;;;;;;6.35;5.28;;;;;;;30.21;50.96;100672.94;144994;571;5002;-80
2021/08/19 02:08:47;;;;;;;5.90;4.93;;;;;;;30.14;51.03;100666.16;144994;643;4578;-79
2021/08/19 02:11:13;;;;;;;5.15;4.57;;;;;;;30.06;50.70;100669.25;144994;574;4572;-81
2021/08/19 02:13:41;;;;;;;4.55;4.05;;;;;;;30.00;50.81;100675.78;144992;596;6002;-81
2021/08/19 02:16:07;;;;;;;5.18;4.68;;;;;;;29.95;50.89;100677.81;144992;565;6002;-80
2021/08/19 02:18:34;;;;;;;7.37;4.90;;;;;;;29.89;51.27;100686.19;144992;571;6002;-80
2021/08/19 02:21:00;;;;;;;5.75;4.10;;;;;;;29.81;51.23;100689.25;144992;583;6002;-82
2021/08/19 02:23:27;;;;;;;4.90;4.43;;;;;;;29.77;51.20;100690.31;144992;569;6002;-80
2021/08/19 02:25:53;;;;;;;5.25;4.75;;;;;;;29.74;51.24;100687.78;144992;586;6002;-80
2021/08/19 02:28:20;;;;;;;8.27;4.85;;;;;;;29.69;51.61;100692.53;144992;620;6002;-80
2021/08/19 02:30:46;;;;;;;5.80;4.47;;;;;;;29.60;51.49;100690.31;144992;610;6002;-80
2021/08/19 02:33:20;;;;;;;5.28;4.78;;;;;;;29.56;51.47;100700.31;144992;606;6002;-81
2021/08/19 02:35:46;;;;;;;4.93;4.53;;;;;;;29.56;51.61;100697.63;144992;587;6002;-81
2021/08/19 02:38:13;;;;;;;9.73;5.90;;;;;;;29.57;51.35;100701.16;144992;618;6002;-80
2021/08/19 02:40:40;;;;;;;6.55;4.90;;;;;;;29.57;50.96;100695.81;144992;571;6002;-79
2021/08/19 02:43:08;;;;;;;6.35;4.75;;;;;;;29.57;50.97;100710.03;144992;585;6002;-81
2021/08/19 02:45:35;;;;;;;6.50;5.00;;;;;;;29.56;51.24;100708.31;144992;573;6002;-80
2021/08/19 02:48:02;;;;;;;5.37;4.87;;;;;;;29.54;51.22;100714.69;144992;578;6002;-80
2021/08/19 02:50:29;;;;;;;7.15;4.68;;;;;;;29.52;50.93;100706.72;144991;569;6002;-79
2021/08/19 02:52:56;;;;;;;8.55;6.55;;;;;;;29.49;51.20;100707.78;144992;669;6002;-81
2021/08/19 02:55:22;;;;;;;7.60;6.80;;;;;;;29.41;50.92;100717.09;144992;577;6002;-80
2021/08/19 02:57:49;;;;;;;11.23;6.45;;;;;;;29.29;51.53;100711.41;144992;617;6002;-79
2021/08/19 03:00:16;;;;;;;7.40;5.57;;;;;;;29.16;52.00;100722.72;144992;613;6002;-80
2021/08/19 03:02:44;;;;;;;7.40;5.60;;;;;;;29.09;51.91;100719.50;144992;564;6002;-80
2021/08/19 03:05:10;;;;;;;7.18;5.43;;;;;;;29.07;52.01;100721.37;144992;654;6002;-78
2021/08/19 03:07:37;;;;;;;7.68;5.70;;;;;;;29.00;52.25;100722.59;144992;585;6002;-81
2021/08/19 03:10:05;;;;;;;7.80;6.00;;;;;;;28.99;52.25;100726.22;144992;599;6002;-80
2021/08/19 03:12:31;;;;;;;6.20;5.60;;;;;;;29.02;52.26;100728.75;144992;587;6002;-79
2021/08/19 03:14:58;;;;;;;6.43;5.65;;;;;;;29.06;52.20;100730.31;144992;594;6002;-81
2021/08/19 03:17:27;;;;;;;7.22;5.30;;;;;;;29.08;51.94;100737.34;144992;584;6002;-80
2021/08/19 03:19:53;;;;;;;5.18;4.68;;;;;;;29.11;52.31;100745.22;144992;584;6002;-80
2021/08/19 03:22:20;;;;;;;8.40;5.32;;;;;;;29.15;52.30;100743.25;144992;563;6002;-80
2021/08/19 03:24:47;;;;;;;4.82;4.43;;;;;;;29.19;52.25;100749.34;144992;622;6002;-79
2021/08/19 03:27:13;;;;;;;5.47;4.85;;;;;;;29.21;52.15;100759.03;144992;592;6002;-80
2021/08/19 03:29:40;;;;;;;7.15;4.80;;;;;;;29.24;52.30;100753.53;144992;571;6002;-82
2021/08/19 03:32:07;;;;;;;5.07;4.57;;;;;;;29.24;51.98;100753.53;144992;639;6002;-80
2021/08/19 03:34:34;;;;;;;8.85;4.65;;;;;;;29.27;52.22;100755.19;144992;575;6002;-78
2021/08/19 03:37:00;;;;;;;5.70;4.70;;;;;;;29.28;52.02;100757.78;144992;581;6002;-77
2021/08/19 03:39:28;;;;;;;7.30;5.20;;;;;;;29.30;51.87;100765.72;144992;595;6002;-79
2021/08/19 03:41:55;;;;;;;6.75;5.15;;;;;;;29.30;52.26;100763.94;144992;566;6002;-79
2021/08/19 03:44:22;;;;;;;7.10;4.68;;;;;;;29.32;52.30;100766.53;144992;603;6002;-77
2021/08/19 03:46:48;;;;;;;6.87;4.78;;;;;;;29.29;52.29;100762.19;144992;609;6002;-79
2021/08/19 03:49:14;;;;;;;7.75;4.60;;;;;;;29.25;52.23;100765.94;144992;619;6002;-80
2021/08/19 03:51:41;;;;;;;5.68;4.93;;;;;;;29.14;52.67;100762.87;144992;577;6002;-81
2021/08/19 03:54:07;;;;;;;5.95;4.60;;;;;;;29.10;52.61;100758.66;144992;585;6002;-80
2021/08/19 03:56:38;;;;;;;7.43;4.85;;;;;;;29.08;53.22;100761.38;144992;569;6002;-80
2021/08/19 03:59:06;;;;;;;9.40;4.70;;;;;;;29.11;52.67;100779.06;144992;604;6002;-80
2021/08/19 04:01:32;;;;;;;8.02;5.25;;;;;;;29.13;52.81;100771.88;144992;586;6002;-80
2021/08/19 04:04:03;;;;;;;9.68;5.65;;;;;;;29.15;52.96;100764.62;144992;597;6002;-81
2021/08/19 04:06:32;;;;;;;6.60;5.10;;;;;;;29.17;52.89;100772.56;144992;592;6002;-80
2021/08/19 04:08:58;;;;;;;9.43;5.60;;;;;;;29.14;52.85;100778.91;144992;615;6003;-80
2021/08/19 04:11:25;;;;;;;7.72;4.95;;;;;;;29.15;53.06;100777.13;144992;618;6002;-81
2021/08/19 04:13:53;;;;;;;6.10;5.07;;;;;;;29.17;52.80;100784.12;144992;649;6002;-80
2021/08/19 04:16:20;;;;;;;8.05;4.85;;;;;;;29.18;52.71;100777.84;144992;569;6002;-80
2021/08/19 04:18:47;;;;;;;5.22;4.72;;;;;;;29.21;52.44;100780.41;144992;592;6002;-80
2021/08/19 04:21:13;;;;;;;5.30;4.72;;;;;;;29.22;52.32;100775.94;144992;569;6002;-80
2021/08/19 04:23:43;;;;;;;5.30;4.80;;;;;;;29.22;52.14;100774.12;144992;586;6002;-79
2021/08/19 04:26:10;;;;;;;7.75;4.78;;;;;;;29.17;52.15;100778.78;144992;585;6002;-81
2021/08/19 04:28:37;;;;;;;8.20;4.75;;;;;;;29.16;52.13;100779.75;144992;570;6002;-81
2021/08/19 04:31:03;;;;;;;6.55;4.32;;;;;;;29.12;52.31;100776.31;144992;610;6002;-80
2021/08/19 04:33:30;;;;;;;7.90;4.93;;;;;;;29.08;52.28;100792.56;144992;583;6002;-80
2021/08/19 04:35:57;;;;;;;8.30;5.00;;;;;;;29.08;52.15;100793.47;144992;603;6002;-81
2021/08/19 04:38:27;;;;;;;5.50;5.00;;;;;;;29.09;51.98;100805.00;144992;583;6002;-79
2021/08/19 04:40:54;;;;;;;7.75;4.62;;;;;;;29.12;52.27;100807.53;144992;596;6002;-79
2021/08/19 04:43:21;;;;;;;6.97;5.05;;;;;;;29.16;51.98;100810.91;144992;577;6002;-79
2021/08/19 04:45:48;;;;;;;7.00;5.22;;;;;;;29.22;51.94;100808.00;144992;569;6002;-80
2021/08/19 04:48:15;;;;;;;12.02;5.15;;;;;;;29.24;52.13;100809.69;144992;636;6002;-81
2021/08/19 04:50:41;;;;;;;5.57;4.97;;;;;;;29.29;52.18;100815.66;144992;632;6002;-80
2021/08/19 04:53:08;;;;;;;5.85;5.20;;;;;;;29.34;51.79;100807.44;144992;569;6002;-80
2021/08/19 04:55:35;;;;;;;7.30;4.90;;;;;;;29.40;51.78;100814.28;144991;618;6002;-80
2021/08/19 04:58:02;;;;;;;5.37;4.78;;;;;;;29.47;51.58;100811.25;144992;581;6002;-80
2021/08/19 05:00:28;;;;;;;6.72;4.78;;;;;;;29.48;52.06;100809.47;144992;569;6002;-79
2021/08/19 05:02:55;;;;;;;7.72;4.82;;;;;;;29.51;51.93;100816.44;144992;566;6002;-80
2021/08/19 05:05:22;;;;;;;8.10;5.30;;;;;;;29.54;51.84;100817.19;144992;581;6002;-79
2021/08/19 05:07:48;;;;;;;6.35;4.57;;;;;;;29.58;51.86;100818.75;144992;662;6002;-80
2021/08/19 05:10:14;;;;;;;6.68;4.90;;;;;;;29.62;51.84;100824.81;144991;606;6002;-80
2021/08/19 05:12:41;;;;;;;6.12;4.70;;;;;;;29.65;51.72;100822.00;144992;577;6002;-80
2021/08/19 05:15:08;;;;;;;5.80;5.22;;;;;;;29.68;51.94;100819.16;144992;563;6002;-80
2021/08/19 05:17:35;;;;;;;11.45;6.60;;;;;;;29.73;51.96;100816.28;144992;624;6002;-80
2021/08/19 05:20:01;;;;;;;11.20;7.32;;;;;;;29.74;52.13;100824.22;144992;570;6002;-80
2021/08/19 05:22:31;;;;;;;11.40;6.65;;;;;;;29.78;52.46;100817.78;144992;576;6002;-80
2021/08/19 05:24:57;;;;;;;7.45;6.35;;;;;;;29.83;52.60;100830.97;144992;596;6002;-81
2021/08/19 05:27:23;;;;;;;7.87;5.05;;;;;;;29.87;52.58;100829.87;144992;574;6002;-81
2021/08/19 05:29:50;;;;;;;8.90;5.47;;;;;;;29.88;52.82;100831.62;144992;621;6002;-79
2021/08/19 05:32:16;;;;;;;5.85;5.12;;;;;;;29.90;53.04;100834.22;144992;566;6002;-79
2021/08/19 05:34:43;;;;;;;6.47;4.82;;;;;;;29.93;53.08;100826.03;144992;582;6002;-80
2021/08/19 05:37:09;;;;;;;8.27;5.70;;;;;;;29.99;53.06;100833.75;144992;590;6002;-81
2021/08/19 05:39:36;;;;;;;10.43;6.62;;;;;;;30.05;52.84;100835.25;144992;593;6002;-80
2021/08/19 05:42:03;;;;;;;9.50;6.93;;;;;;;30.08;52.96;100837.78;144992;629;6002;-80
2021/08/19 05:44:29;;;;;;;8.77;6.65;;;;;;;30.12;52.62;100842.03;144992;591;6002;-81
2021/08/19 05:46:56;;;;;;;6.97;5.22;;;;;;;30.08;54.43;100837.78;144992;586;6002;-81
2021/08/19 05:49:22;;;;;;;7.20;4.95;;;;;;;30.10;52.99;100836.78;144992;575;6002;-79
2021/08/19 05:51:48;;;;;;;6.20;5.18;;;;;;;30.08;53.64;100832.41;144992;615;6002;-79
2021/08/19 05:54:16;;;;;;;9.80;4.82;;;;;;;30.08;53.24;100840.44;144992;590;6002;-79
2021/08/19 05:56:42;;;;;;;6.28;5.68;;;;;;;30.07;53.19;100836.91;144992;594;6002;-80
2021/08/19 05:59:09;;;;;;;8.65;5.35;;;;;;;29.97;53.67;100839.19;144992;602;6002;-80
2021/08/19 06:01:37;;;;;;;5.82;4.85;;;;;;;29.97;53.62;100835.62;144992;593;6002;-81
2021/08/19 06:04:04;;;;;;;10.15;5.40;;;;;;;30.00;53.44;100840.81;144992;598;6002;-80
2021/08/19 06:06:30;;;;;;;6.93;5.03;;;;;;;30.03;54.80;100852.28;144991;613;6002;-79
2021/08/19 06:08:57;;;;;;;8.77;5.65;;;;;;;30.06;53.57;100845.03;144992;616;6002;-79
2021/08/19 06:11:23;;;;;;;5.18;4.68;;;;;;;30.09;54.05;100850.22;144992;581;6002;-80
2021/08/19 06:13:50;;;;;;;5.55;5.03;;;;;;;30.07;55.08;100846.75;144992;589;6002;-80
2021/08/19 06:16:17;;;;;;;5.80;4.93;;;;;;;30.11;54.31;100845.66;144992;598;6002;-79
2021/08/19 06:18:43;;;;;;;8.05;4.93;;;;;;;30.19;54.34;100841.66;144992;590;6002;-80
2021/08/19 06:21:10;;;;;;;4.93;4.43;;;;;;;30.30;54.28;100849.12;144992;618;6002;-80
2021/08/19 06:23:36;;;;;;;6.37;4.85;;;;;;;30.32;54.06;100846.38;144992;583;6002;-80
2021/08/19 06:26:03;;;;;;;6.50;4.80;;;;;;;30.22;54.92;100845.97;144992;605;6002;-82
2021/08/19 06:28:30;;;;;;;7.22;5.05;;;;;;;30.27;54.77;100843.94;144992;601;6002;-80
2021/08/19 06:30:57;;;;;;;7.97;4.95;;;;;;;30.22;54.96;100845.97;144992;588;6002;-81
2021/08/19 06:33:23;;;;;;;9.13;5.40;;;;;;;30.23;55.51;100845.03;144992;613;6002;-80
2021/08/19 06:35:50;;;;;;;7.80;5.78;;;;;;;29.97;56.89;100844.53;144992;585;6002;-80
2021/08/19 06:38:17;;;;;;;8.80;5.20;;;;;;;30.04;55.83;100842.44;144992;593;6002;-79
2021/08/19 06:40:44;;;;;;;9.20;5.25;;;;;;;29.98;55.77;100848.06;144992;610;6002;-79
2021/08/19 06:43:10;;;;;;;5.40;4.87;;;;;;;29.69;58.19;100850.34;144992;598;6002;-79
2021/08/19 06:45:36;;;;;;;7.57;4.70;;;;;;;29.84;56.39;100852.31;144991;615;6002;-80
2021/08/19 06:48:04;;;;;;;5.18;4.70;;;;;;;29.89;56.62;100843.19;144992;586;6002;-79
2021/08/19 06:50:30;;;;;;;6.62;4.70;;;;;;;29.92;57.23;100843.03;144992;621;6002;-80
2021/08/19 06:52:57;;;;;;;5.87;4.80;;;;;;;29.94;57.01;100849.16;144992;585;6002;-80
2021/08/19 06:55:23;;;;;;;7.43;4.95;;;;;;;29.98;56.31;100851.59;144992;613;6002;-80
2021/08/19 06:57:50;;;;;;;5.10;4.60;;;;;;;30.03;56.58;100856.75;144992;563;6002;-80
2021/08/19 07:00:17;;;;;;;6.35;4.93;;;;;;;30.14;55.84;100861.56;144992;580;6002;-79
2021/08/19 07:02:43;;;;;;;7.05;5.12;;;;;;;30.24;56.15;100857.47;144992;565;6002;-79
2021/08/19 07:05:12;;;;;;;5.37;4.72;;;;;;;30.29;56.17;100863.47;144992;585;6002;-78
2021/08/19 07:07:39;;;;;;;6.60;4.82;;;;;;;30.33;56.13;100866.84;144992;608;6002;-80
2021/08/19 07:10:07;;;;;;;7.22;4.85;;;;;;;30.38;55.76;100862.16;144992;569;6002;-80
2021/08/19 07:12:35;;;;;;;8.05;5.18;;;;;;;30.28;56.14;100867.09;144992;615;6002;-79
2021/08/19 07:15:02;;;;;;;7.28;4.95;;;;;;;30.14;57.30;100864.25;144992;583;6003;-80
2021/08/19 07:17:29;;;;;;;5.22;4.28;;;;;;;30.15;56.02;100866.84;144992;585;6002;-80
2021/08/19 07:19:55;;;;;;;6.70;4.35;;;;;;;30.22;55.22;100862.03;144992;619;6002;-81
2021/08/19 07:22:22;;;;;;;6.68;4.65;;;;;;;30.18;54.56;100861.34;144992;601;6002;-80
2021/08/19 07:24:48;;;;;;;5.47;4.50;;;;;;;30.20;55.10;100871.97;144992;572;6002;-79
2021/08/19 07:27:15;;;;;;;5.25;4.22;;;;;;;30.19;54.18;100876.47;144992;619;6002;-80
2021/08/19 07:29:41;;;;;;;5.43;4.07;;;;;;;30.29;54.52;100873.31;144992;605;6002;-80
2021/08/19 07:32:08;;;;;;;4.70;4.22;;;;;;;30.37;54.15;100879.16;144992;574;6002;-81
2021/08/19 07:34:35;;;;;;;5.30;4.30;;;;;;;30.47;53.58;100874.22;144992;594;6002;-80
2021/08/19 07:37:02;;;;;;;7.72;4.25;;;;;;;30.11;52.00;100881.31;144992;608;6002;-81
2021/08/19 07:39:28;;;;;;;6.87;4.62;;;;;;;30.28;53.16;100885.84;144992;642;6011;-80
2021/08/19 07:41:55;;;;;;;6.30;4.18;;;;;;;30.35;52.65;100889.06;144992;583;6002;-81
2021/08/19 07:44:21;;;;;;;7.35;4.35;;;;;;;30.29;52.23;100892.94;144992;607;6002;-80
2021/08/19 07:46:48;;;;;;;8.07;4.00;;;;;;;30.39;52.01;100891.53;144992;596;6002;-80
2021/08/19 07:49:17;;;;;;;6.03;3.90;;;;;;;30.46;52.09;100883.19;144992;606;6002;-79
2021/08/19 07:51:43;;;;;;;6.10;3.97;;;;;;;30.50;50.97;100893.69;144992;614;6002;-79
2021/08/19 07:54:10;;;;;;;6.32;4.00;;;;;;;30.61;51.64;100889.56;144992;580;6002;-82
2021/08/19 07:56:36;;;;;;;7.53;4.03;;;;;;;30.61;51.56;100900.28;144992;620;6002;-79
2021/08/19 07:59:02;;;;;;;5.25;4.30;;;;;;;30.60;51.21;100901.25;144992;582;6002;-80
2021/08/19 08:01:29;;;;;;;6.25;4.55;;;;;;;30.67;51.64;100884.78;144992;617;6002;-81
2021/08/19 08:03:55;;;;;;;5.65;4.72;;;;;;;30.82;50.83;100884.94;144992;575;6002;-80
2021/08/19 08:06:22;;;;;;;5.18;4.10;;;;;;;30.99;51.07;100892.97;144992;718;6002;-79
2021/08/19 08:08:48;;;;;;;5.15;4.65;;;;;;;31.04;50.34;100896.28;144992;621;6002;-80
2021/08/19 08:11:15;;;;;;;6.55;4.18;;;;;;;31.00;50.68;100886.66;144992;590;6002;-79
2021/08/19 08:13:41;;;;;;;4.95;4.32;;;;;;;31.07;50.72;100896.09;144992;564;6002;-80
2021/08/19 08:16:08;;;;;;;6.43;4.80;;;;;;;31.04;51.32;100896.28;144992;570;6002;-80
2021/08/19 08:18:34;;;;;;;5.87;4.95;;;;;;;31.14;52.53;100898.47;144992;586;6002;-81
2021/08/19 08:21:02;;;;;;;7.32;4.68;;;;;;;31.13;51.48;100899.41;144992;582;6002;-80
2021/08/19 08:23:33;;;;;;;6.07;4.20;;;;;;;31.21;50.37;100907.91;144992;596;6003;-79
2021/08/19 08:26:00;;;;;;;5.18;4.28;;;;;;;31.35;50.86;100905.31;144992;569;6002;-80
2021/08/19 08:28:28;;;;;;;7.60;4.20;;;;;;;31.39;49.75;100904.22;144993;670;6002;-79
2021/08/19 08:30:54;;;;;;;5.85;4.40;;;;;;;31.45;49.74;100906.56;144993;599;6002;-80
2021/08/19 08:33:21;;;;;;;7.35;4.10;;;;;;;31.41;49.48;100913.03;144993;577;6002;-79
2021/08/19 08:35:50;;;;;;;5.75;4.65;;;;;;;31.28;48.77;100903.94;144992;724;6002;-78
2021/08/19 08:38:19;;;;;;;5.47;4.50;;;;;;;31.45;50.18;100894.97;144993;570;6002;-80
2021/08/19 08:40:48;;;;;;;4.90;4.22;;;;;;;31.42;48.99;100904.06;144993;703;6002;-81
2021/08/19 08:43:17;;;;;;;4.62;4.18;;;;;;;31.24;49.04;100905.03;144993;565;6002;-79
2021/08/19 08:45:46;;;;;;;4.40;4.00;;;;;;;31.35;49.92;100894.59;144993;566;6002;-81
2021/08/19 08:48:18;;;;;;;6.57;4.53;;;;;;;31.34;50.21;100892.88;144993;614;6002;-80
2021/08/19 08:50:47;;;;;;;7.65;5.37;;;;;;;31.51;50.52;100891.94;144993;610;6002;-80
2021/08/19 08:53:15;;;;;;;5.45;4.45;;;;;;;31.32;51.16;100899.28;144993;689;6002;-80
2021/08/19 08:55:41;;;;;;;7.60;4.75;;;;;;;31.34;51.03;100887.53;144992;596;6002;-80
2021/08/19 08:58:09;;;;;;;5.22;4.60;;;;;;;31.38;50.95;100888.22;144993;647;6002;-80
2021/08/19 09:00:35;;;;;;;6.50;4.60;;;;;;;31.46;49.89;100885.97;144992;664;6002;-79
2021/08/19 09:03:02;;;;;;;9.80;4.30;;;;;;;31.31;50.18;100882.31;144992;585;6002;-81
2021/08/19 09:05:29;;;;;;;5.12;4.20;;;;;;;31.26;50.19;100881.69;144992;605;6002;-77
2021/08/19 09:07:58;;;;;;;5.60;4.47;;;;;;;31.26;49.71;100879.91;144992;622;6002;-80
2021/08/19 09:10:28;;;;;;;5.97;5.20;;;;;;;31.08;52.50;100887.09;144992;601;6002;-80
2021/08/19 09:12:54;;;;;;;5.43;4.93;;;;;;;31.31;50.46;100881.44;144992;571;6002;-79
2021/08/19 09:15:23;;;;;;;5.40;4.70;;;;;;;31.23;51.43;100880.06;144993;599;6002;-80
2021/08/19 09:17:56;;;;;;;5.68;5.10;;;;;;;31.21;51.26;100884.66;144993;700;6002;-80
2021/08/19 09:20:33;;;;;;;6.83;5.50;;;;;;;31.22;51.25;100886.38;144993;608;6002;-80
2021/08/19 09:23:03;;;;;;;6.18;4.85;;;;;;;31.42;51.22;100890.66;144993;594;6002;-80
2021/08/19 09:25:40;;;;;;;8.43;5.00;;;;;;;31.41;51.45;100896.09;144993;657;6002;-79
2021/08/19 09:28:20;;;;;;;6.65;4.95;;;;;;;31.43;50.85;100899.53;144993;653;6002;-81
2021/08/19 09:30:58;;;;;;;4.93;4.28;;;;;;;31.55;50.76;100908.78;144993;655;6002;-80
2021/08/19 09:33:31;;;;;;;6.28;4.40;;;;;;;31.40;51.03;100911.34;144992;564;6002;-81
2021/08/19 09:36:05;;;;;;;6.75;4.70;;;;;;;31.43;52.14;100910.28;144993;708;6002;-78
2021/08/19 09:38:43;;;;;;;6.18;4.90;;;;;;;31.38;52.37;100907.84;144993;672;6002;-81
2021/08/19 09:41:18;;;;;;;6.12;4.75;;;;;;;31.50;52.35;100902.75;144992;739;6002;-79
2021/08/19 09:43:52;;;;;;;7.15;4.80;;;;;;;31.56;51.47;100902.44;144993;694;6002;-79
2021/08/19 09:46:37;;;;;;;5.43;4.50;;;;;;;31.57;50.48;100899.69;144993;599;6002;-78
2021/08/19 09:49:24;;;;;;;5.30;4.50;;;;;;;31.51;50.41;100899.97;144993;589;6002;-79
2021/08/19 09:52:18;;;;;;;5.97;4.93;;;;;;;31.29;51.60;100894.94;144993;587;6002;-79
2021/08/19 09:54:44;;;;;;;7.35;4.65;;;;;;;31.21;51.14;100894.50;144993;620;6002;-80
2021/08/19 09:57:11;;;;;;;6.37;5.00;;;;;;;31.03;51.35;100899.03;144993;596;6002;-79
2021/08/19 09:59:40;;;;;;;7.32;4.93;;;;;;;31.17;51.26;100903.66;144993;644;6002;-79
2021/08/19 10:02:08;;;;;;;7.10;4.65;;;;;;;31.21;49.35;100907.91;144993;625;6002;-80
2021/08/19 10:04:36;;;;;;;5.57;4.97;;;;;;;31.20;48.86;100907.03;144993;569;6002;-80
2021/08/19 10:07:05;;;;;;;6.72;5.18;;;;;;;31.21;49.83;100910.56;144994;573;5002;-83
2021/08/19 10:09:32;;;;;;;6.57;4.90;;;;;;;31.22;49.14;100904.28;144994;592;5002;-81
2021/08/19 10:11:59;;;;;;;6.40;4.87;;;;;;;31.11;49.40;100905.69;144994;585;5002;-79
2021/08/19 10:14:32;;;;;;;7.30;5.00;;;;;;;31.17;48.80;100899.16;144994;646;5002;-81
2021/08/19 10:16:59;;;;;;;8.52;5.25;;;;;;;31.28;49.15;100903.94;144994;658;5002;-80
2021/08/19 10:19:41;;;;;;;7.32;4.78;;;;;;;31.45;49.07;100895.84;144994;633;5002;-81
2021/08/19 10:22:17;;;;;;;8.63;4.70;;;;;;;31.53;47.71;100894.56;144994;686;5002;-81
2021/08/19 10:24:50;;;;;;;6.25;4.62;;;;;;;31.54;47.03;100907.03;144994;647;5002;-81
2021/08/19 10:27:28;;;;;;;7.30;4.75;;;;;;;31.51;46.59;100899.97;144994;564;5002;-82
2021/08/19 10:29:59;;;;;;;7.43;5.25;;;;;;;31.48;44.18;100902.84;144994;565;5002;-79
2021/08/19 10:32:52;;;;;;;7.12;5.22;;;;;;;31.46;46.10;100897.56;144994;563;5002;-81
2021/08/19 10:35:26;;;;;;;6.70;4.80;;;;;;;31.75;45.61;100899.59;144994;563;5004;-81
2021/08/19 10:38:02;;;;;;;6.32;5.18;;;;;;;31.82;44.05;100895.63;144993;586;5004;-80
2021/08/19 10:40:39;;;;;;;6.20;5.07;;;;;;;32.07;44.77;100897.78;144994;579;5004;-81
2021/08/19 10:43:49;;;;;;;6.40;4.37;;;;;;;32.12;44.55;100887.66;144994;562;5004;-80
2021/08/19 10:46:15;;;;;;;7.87;4.80;;;;;;;31.98;43.58;100888.44;144994;595;5004;-81
2021/08/19 10:48:50;;;;;;;6.12;4.97;;;;;;;32.03;43.50;100872.06;144994;657;5004;-80
2021/08/19 10:51:18;;;;;;;5.97;4.70;;;;;;;31.95;43.95;100887.75;144994;602;5004;-80
2021/08/19 10:53:45;;;;;;;7.72;5.10;;;;;;;31.93;43.84;100886.97;144994;567;5004;-79
2021/08/19 10:56:12;;;;;;;6.32;5.18;;;;;;;31.82;44.21;100882.22;144994;567;5004;-79
2021/08/19 10:58:43;;;;;;;7.57;5.55;;;;;;;31.78;43.95;100878.81;144994;567;5004;-80
2021/08/19 11:01:49;;;;;;;9.10;6.95;;;;;;;31.73;45.17;100880.91;144994;653;5004;-79
2021/08/19 11:04:46;;;;;;;6.00;4.55;;;;;;;31.99;44.37;100883.91;144994;696;5002;-79
2021/08/19 11:08:04;;;;;;;10.63;5.35;;;;;;;31.97;45.12;100872.41;144994;682;5004;-80
2021/08/19 11:10:38;;;;;;;28.27;19.95;;;;;;;32.07;44.88;100870.06;144994;579;5004;-81
2021/08/19 11:13:10;;;;;;;9.32;5.32;;;;;;;32.15;44.68;100867.81;144993;621;5004;-80
2021/08/19 11:15:46;;;;;;;7.07;5.53;;;;;;;32.12;44.50;100870.66;144994;602;5002;-81
2021/08/19 11:18:25;;;;;;;9.27;5.10;;;;;;;32.16;44.44;100872.22;144994;569;5002;-79
2021/08/19 11:20:52;;;;;;;7.90;5.70;;;;;;;32.18;44.45;100871.19;144994;596;5003;-81
2021/08/19 11:23:18;;;;;;;6.00;4.97;;;;;;;32.16;44.88;100864.19;144994;583;5002;-80
2021/08/19 11:25:46;;;;;;;9.05;5.20;;;;;;;32.19;44.38;100872.91;144994;597;5002;-80
2021/08/19 11:28:17;;;;;;;6.90;5.10;;;;;;;32.10;44.28;100862.75;144994;710;5002;-79
2021/08/19 11:30:49;;;;;;;7.15;5.50;;;;;;;31.99;44.57;100857.06;144994;602;5002;-80
2021/08/19 11:33:24;;;;;;;11.43;7.28;;;;;;;31.84;44.86;100853.47;144994;627;5002;-79
2021/08/19 11:36:00;;;;;;;6.43;5.65;;;;;;;31.78;45.40;100865.41;144994;592;5002;-80
2021/08/19 11:38:29;;;;;;;6.53;5.72;;;;;;;31.80;44.77;100855.47;144994;566;5002;-81
2021/08/19 11:40:58;;;;;;;7.25;6.00;;;;;;;31.74;44.99;100861.19;144994;571;5002;-80
2021/08/19 11:43:32;;;;;;;6.57;5.68;;;;;;;31.95;45.38;100858.22;144994;635;5002;-79